Who's Online

We have 4 guests online

Aviation WX

[source: ADDS]
METAR
KIAD 280352Z 28003KT 10SM FEW130 SCT170 26/22 A2992 RMK AO2 SLP127 T02610217 =
TAF
KIAD 272323Z 2800/2906 VRB03KT P6SM SCT050 SCT150 BKN250 FM281800 VRB03KT P6SM VCSH SCT050 SCT150 BKN200 FM290000 21005KT 6SM -SHRA BR OVC060 FM290200 02004KT 6SM -SHRA BR OVC040 =
SR / SS: 23:51 / 14:05 UTC (Washington-Dulles 2016-07-27)

JoomlaWatch Agent

Home Products and Services

This section describes Multilink Systems products and services

 

 

Under construction Please Standby